sensor_id;sensor_type;location;lat;lon;timestamp;temperature;humidity
6078;DHT22;3067;49.470;10.394;2024-03-02T00:00:50;7.20;72.20
6078;DHT22;3067;49.470;10.394;2024-03-02T00:03:18;7.10;72.10
6078;DHT22;3067;49.470;10.394;2024-03-02T00:05:49;7.10;72.00
6078;DHT22;3067;49.470;10.394;2024-03-02T00:08:23;7.00;71.50
6078;DHT22;3067;49.470;10.394;2024-03-02T00:10:52;7.00;71.80
6078;DHT22;3067;49.470;10.394;2024-03-02T00:13:24;7.00;72.10
6078;DHT22;3067;49.470;10.394;2024-03-02T00:15:54;7.00;72.20
6078;DHT22;3067;49.470;10.394;2024-03-02T00:18:25;7.00;72.20
6078;DHT22;3067;49.470;10.394;2024-03-02T00:20:56;6.90;72.20
6078;DHT22;3067;49.470;10.394;2024-03-02T00:23:29;6.90;72.50
6078;DHT22;3067;49.470;10.394;2024-03-02T00:25:57;6.80;72.70
6078;DHT22;3067;49.470;10.394;2024-03-02T00:28:27;6.80;72.80
6078;DHT22;3067;49.470;10.394;2024-03-02T00:30:56;6.60;74.20
6078;DHT22;3067;49.470;10.394;2024-03-02T00:33:25;6.60;74.50
6078;DHT22;3067;49.470;10.394;2024-03-02T00:35:53;6.60;74.70
6078;DHT22;3067;49.470;10.394;2024-03-02T00:38:21;6.50;75.80
6078;DHT22;3067;49.470;10.394;2024-03-02T00:40:50;6.50;76.40
6078;DHT22;3067;49.470;10.394;2024-03-02T00:43:44;6.50;76.50
6078;DHT22;3067;49.470;10.394;2024-03-02T00:46:13;6.60;77.10
6078;DHT22;3067;49.470;10.394;2024-03-02T00:48:48;6.60;77.50
6078;DHT22;3067;49.470;10.394;2024-03-02T00:51:17;6.50;77.70
6078;DHT22;3067;49.470;10.394;2024-03-02T00:53:44;6.60;77.30
6078;DHT22;3067;49.470;10.394;2024-03-02T00:56:13;6.60;77.10
6078;DHT22;3067;49.470;10.394;2024-03-02T00:58:40;6.70;76.80
6078;DHT22;3067;49.470;10.394;2024-03-02T01:01:07;6.70;76.50
6078;DHT22;3067;49.470;10.394;2024-03-02T01:03:35;6.70;76.30
6078;DHT22;3067;49.470;10.394;2024-03-02T01:06:03;6.80;76.20
6078;DHT22;3067;49.470;10.394;2024-03-02T01:08:33;6.80;76.00
6078;DHT22;3067;49.470;10.394;2024-03-02T01:11:00;6.90;75.70
6078;DHT22;3067;49.470;10.394;2024-03-02T01:13:28;6.90;75.40
6078;DHT22;3067;49.470;10.394;2024-03-02T01:15:56;7.00;75.30
6078;DHT22;3067;49.470;10.394;2024-03-02T01:18:23;7.00;75.10
6078;DHT22;3067;49.470;10.394;2024-03-02T01:20:50;7.00;75.00
6078;DHT22;3067;49.470;10.394;2024-03-02T01:23:18;7.00;74.70
6078;DHT22;3067;49.470;10.394;2024-03-02T01:25:46;7.00;74.60
6078;DHT22;3067;49.470;10.394;2024-03-02T01:28:13;7.00;74.30
6078;DHT22;3067;49.470;10.394;2024-03-02T01:30:42;7.00;74.00
6078;DHT22;3067;49.470;10.394;2024-03-02T01:33:09;6.90;73.90
6078;DHT22;3067;49.470;10.394;2024-03-02T01:35:36;7.00;73.70
6078;DHT22;3067;49.470;10.394;2024-03-02T01:38:04;6.90;73.50
6078;DHT22;3067;49.470;10.394;2024-03-02T01:40:33;6.90;73.40
6078;DHT22;3067;49.470;10.394;2024-03-02T01:43:00;6.90;73.20
6078;DHT22;3067;49.470;10.394;2024-03-02T01:45:28;6.90;73.30
6078;DHT22;3067;49.470;10.394;2024-03-02T01:47:56;6.80;73.40
6078;DHT22;3067;49.470;10.394;2024-03-02T01:50:27;6.80;73.60
6078;DHT22;3067;49.470;10.394;2024-03-02T01:52:55;6.70;73.80
6078;DHT22;3067;49.470;10.394;2024-03-02T01:55:23;6.60;73.90
6078;DHT22;3067;49.470;10.394;2024-03-02T01:57:51;6.60;74.10
6078;DHT22;3067;49.470;10.394;2024-03-02T02:00:20;6.60;74.30
6078;DHT22;3067;49.470;10.394;2024-03-02T02:02:48;6.60;74.30
6078;DHT22;3067;49.470;10.394;2024-03-02T02:05:17;6.60;74.30
6078;DHT22;3067;49.470;10.394;2024-03-02T02:07:44;6.60;74.30
6078;DHT22;3067;49.470;10.394;2024-03-02T02:10:11;6.60;74.40
6078;DHT22;3067;49.470;10.394;2024-03-02T02:12:38;6.60;74.40
6078;DHT22;3067;49.470;10.394;2024-03-02T02:15:24;6.60;74.30
6078;DHT22;3067;49.470;10.394;2024-03-02T02:17:51;6.50;74.00
6078;DHT22;3067;49.470;10.394;2024-03-02T02:20:19;6.50;74.00
6078;DHT22;3067;49.470;10.394;2024-03-02T02:22:56;6.60;73.90
6078;DHT22;3067;49.470;10.394;2024-03-02T02:25:23;6.50;73.50
6078;DHT22;3067;49.470;10.394;2024-03-02T02:27:50;6.60;73.40
6078;DHT22;3067;49.470;10.394;2024-03-02T02:30:22;6.60;74.00
6078;DHT22;3067;49.470;10.394;2024-03-02T02:32:49;6.50;74.20
6078;DHT22;3067;49.470;10.394;2024-03-02T02:35:17;6.50;74.60
6078;DHT22;3067;49.470;10.394;2024-03-02T02:37:44;6.50;74.80
6078;DHT22;3067;49.470;10.394;2024-03-02T02:40:13;6.50;75.40
6078;DHT22;3067;49.470;10.394;2024-03-02T02:42:40;6.40;75.80
6078;DHT22;3067;49.470;10.394;2024-03-02T02:45:08;6.40;76.10
6078;DHT22;3067;49.470;10.394;2024-03-02T02:47:35;6.40;76.10
6078;DHT22;3067;49.470;10.394;2024-03-02T02:50:02;6.40;76.50
6078;DHT22;3067;49.470;10.394;2024-03-02T02:52:33;6.40;76.30
6078;DHT22;3067;49.470;10.394;2024-03-02T02:55:03;6.40;76.20
6078;DHT22;3067;49.470;10.394;2024-03-02T02:57:31;6.40;76.30
6078;DHT22;3067;49.470;10.394;2024-03-02T03:00:02;6.40;76.40
6078;DHT22;3067;49.470;10.394;2024-03-02T03:02:39;6.40;76.40
6078;DHT22;3067;49.470;10.394;2024-03-02T03:05:08;6.40;76.40
6078;DHT22;3067;49.470;10.394;2024-03-02T03:07:35;6.30;76.50
6078;DHT22;3067;49.470;10.394;2024-03-02T03:10:03;6.30;76.90
6078;DHT22;3067;49.470;10.394;2024-03-02T03:12:33;6.30;77.20
6078;DHT22;3067;49.470;10.394;2024-03-02T03:15:01;6.30;77.10
6078;DHT22;3067;49.470;10.394;2024-03-02T03:17:28;6.30;77.00
6078;DHT22;3067;49.470;10.394;2024-03-02T03:19:55;6.30;77.00
6078;DHT22;3067;49.470;10.394;2024-03-02T03:22:22;6.30;77.20
6078;DHT22;3067;49.470;10.394;2024-03-02T03:24:50;6.20;77.60
6078;DHT22;3067;49.470;10.394;2024-03-02T03:27:17;6.20;78.20
6078;DHT22;3067;49.470;10.394;2024-03-02T03:29:46;6.30;78.20
6078;DHT22;3067;49.470;10.394;2024-03-02T03:32:13;6.30;78.10
6078;DHT22;3067;49.470;10.394;2024-03-02T03:34:42;6.30;78.00
6078;DHT22;3067;49.470;10.394;2024-03-02T03:37:09;6.40;77.90
6078;DHT22;3067;49.470;10.394;2024-03-02T03:39:36;6.40;77.80
6078;DHT22;3067;49.470;10.394;2024-03-02T03:42:04;6.40;77.70
6078;DHT22;3067;49.470;10.394;2024-03-02T03:44:31;6.40;77.70
6078;DHT22;3067;49.470;10.394;2024-03-02T03:46:59;6.40;77.60
6078;DHT22;3067;49.470;10.394;2024-03-02T03:49:27;6.40;77.50
6078;DHT22;3067;49.470;10.394;2024-03-02T03:51:54;6.40;77.50
6078;DHT22;3067;49.470;10.394;2024-03-02T03:54:21;6.40;77.40
6078;DHT22;3067;49.470;10.394;2024-03-02T03:56:48;6.40;77.30
6078;DHT22;3067;49.470;10.394;2024-03-02T03:59:15;6.40;77.30
6078;DHT22;3067;49.470;10.394;2024-03-02T04:01:42;6.40;77.50
6078;DHT22;3067;49.470;10.394;2024-03-02T04:04:11;6.40;77.50
6078;DHT22;3067;49.470;10.394;2024-03-02T04:06:38;6.40;77.30
6078;DHT22;3067;49.470;10.394;2024-03-02T04:09:05;6.40;77.20
6078;DHT22;3067;49.470;10.394;2024-03-02T04:11:32;6.40;77.10
6078;DHT22;3067;49.470;10.394;2024-03-02T04:13:59;6.40;77.20
6078;DHT22;3067;49.470;10.394;2024-03-02T04:16:27;6.30;77.40
6078;DHT22;3067;49.470;10.394;2024-03-02T04:18:54;6.30;77.20
6078;DHT22;3067;49.470;10.394;2024-03-02T04:21:22;6.30;77.20
6078;DHT22;3067;49.470;10.394;2024-03-02T04:23:49;6.40;77.00
6078;DHT22;3067;49.470;10.394;2024-03-02T04:26:17;6.40;76.80
6078;DHT22;3067;49.470;10.394;2024-03-02T04:28:47;6.40;76.50
6078;DHT22;3067;49.470;10.394;2024-03-02T04:31:15;6.50;76.10
6078;DHT22;3067;49.470;10.394;2024-03-02T04:33:42;6.50;75.70
6078;DHT22;3067;49.470;10.394;2024-03-02T04:36:09;6.50;75.20
6078;DHT22;3067;49.470;10.394;2024-03-02T04:38:38;6.50;74.90
6078;DHT22;3067;49.470;10.394;2024-03-02T04:41:06;6.50;74.80
6078;DHT22;3067;49.470;10.394;2024-03-02T04:43:33;6.50;74.50
6078;DHT22;3067;49.470;10.394;2024-03-02T04:46:00;6.50;74.50
6078;DHT22;3067;49.470;10.394;2024-03-02T04:48:27;6.50;74.30
6078;DHT22;3067;49.470;10.394;2024-03-02T04:50:54;6.50;74.10
6078;DHT22;3067;49.470;10.394;2024-03-02T04:53:21;6.50;73.40
6078;DHT22;3067;49.470;10.394;2024-03-02T04:55:50;6.40;73.40
6078;DHT22;3067;49.470;10.394;2024-03-02T04:58:34;6.30;73.50
6078;DHT22;3067;49.470;10.394;2024-03-02T05:01:01;6.30;73.50
6078;DHT22;3067;49.470;10.394;2024-03-02T05:03:29;6.10;73.90
6078;DHT22;3067;49.470;10.394;2024-03-02T05:05:56;6.10;74.30
6078;DHT22;3067;49.470;10.394;2024-03-02T05:08:23;6.00;74.60
6078;DHT22;3067;49.470;10.394;2024-03-02T05:10:51;6.00;74.80
6078;DHT22;3067;49.470;10.394;2024-03-02T05:13:18;6.00;75.20
6078;DHT22;3067;49.470;10.394;2024-03-02T05:15:46;6.00;75.40
6078;DHT22;3067;49.470;10.394;2024-03-02T05:18:13;6.00;75.60
6078;DHT22;3067;49.470;10.394;2024-03-02T05:20:40;5.90;75.60
6078;DHT22;3067;49.470;10.394;2024-03-02T05:23:07;5.90;75.80
6078;DHT22;3067;49.470;10.394;2024-03-02T05:25:34;5.90;76.10
6078;DHT22;3067;49.470;10.394;2024-03-02T05:28:04;5.90;76.00
6078;DHT22;3067;49.470;10.394;2024-03-02T05:30:31;5.90;75.90
6078;DHT22;3067;49.470;10.394;2024-03-02T05:32:58;5.90;75.60
6078;DHT22;3067;49.470;10.394;2024-03-02T05:35:25;5.90;75.60
6078;DHT22;3067;49.470;10.394;2024-03-02T05:37:52;5.80;75.60
6078;DHT22;3067;49.470;10.394;2024-03-02T05:40:19;5.80;75.70
6078;DHT22;3067;49.470;10.394;2024-03-02T05:42:46;5.80;75.80
6078;DHT22;3067;49.470;10.394;2024-03-02T05:45:15;5.80;75.40
6078;DHT22;3067;49.470;10.394;2024-03-02T05:47:42;5.80;75.20
6078;DHT22;3067;49.470;10.394;2024-03-02T05:50:09;5.80;75.10
6078;DHT22;3067;49.470;10.394;2024-03-02T05:52:36;5.70;75.20
6078;DHT22;3067;49.470;10.394;2024-03-02T05:55:05;5.70;75.10
6078;DHT22;3067;49.470;10.394;2024-03-02T05:57:32;5.70;75.10
6078;DHT22;3067;49.470;10.394;2024-03-02T06:00:15;5.70;75.20
6078;DHT22;3067;49.470;10.394;2024-03-02T06:02:42;5.70;75.40
6078;DHT22;3067;49.470;10.394;2024-03-02T06:05:09;5.70;75.50
6078;DHT22;3067;49.470;10.394;2024-03-02T06:07:37;5.70;75.50
6078;DHT22;3067;49.470;10.394;2024-03-02T06:10:04;5.70;75.60
6078;DHT22;3067;49.470;10.394;2024-03-02T06:12:33;5.70;75.40
6078;DHT22;3067;49.470;10.394;2024-03-02T06:15:00;5.70;75.20
6078;DHT22;3067;49.470;10.394;2024-03-02T06:17:28;5.50;76.30
6078;DHT22;3067;49.470;10.394;2024-03-02T06:19:56;5.50;77.80
6078;DHT22;3067;49.470;10.394;2024-03-02T06:22:23;5.40;78.50
6078;DHT22;3067;49.470;10.394;2024-03-02T06:24:51;5.40;79.00
6078;DHT22;3067;49.470;10.394;2024-03-02T06:27:18;5.50;79.00
6078;DHT22;3067;49.470;10.394;2024-03-02T06:29:45;5.50;78.40
6078;DHT22;3067;49.470;10.394;2024-03-02T06:32:12;5.50;78.10
6078;DHT22;3067;49.470;10.394;2024-03-02T06:34:40;5.50;77.50
6078;DHT22;3067;49.470;10.394;2024-03-02T06:37:07;5.50;77.20
6078;DHT22;3067;49.470;10.394;2024-03-02T06:39:34;5.60;76.90
6078;DHT22;3067;49.470;10.394;2024-03-02T06:42:02;5.60;76.90
6078;DHT22;3067;49.470;10.394;2024-03-02T06:44:29;5.70;76.90
6078;DHT22;3067;49.470;10.394;2024-03-02T06:46:56;5.80;76.60
6078;DHT22;3067;49.470;10.394;2024-03-02T06:49:23;5.80;76.40
6078;DHT22;3067;49.470;10.394;2024-03-02T06:51:51;5.90;76.00
6078;DHT22;3067;49.470;10.394;2024-03-02T06:54:19;6.00;76.00
6078;DHT22;3067;49.470;10.394;2024-03-02T06:56:46;6.10;75.80
6078;DHT22;3067;49.470;10.394;2024-03-02T06:59:13;6.10;75.60
6078;DHT22;3067;49.470;10.394;2024-03-02T07:01:40;6.10;75.50
6078;DHT22;3067;49.470;10.394;2024-03-02T07:04:10;6.10;75.70
6078;DHT22;3067;49.470;10.394;2024-03-02T07:06:37;6.20;76.10
6078;DHT22;3067;49.470;10.394;2024-03-02T07:09:05;6.20;76.10
6078;DHT22;3067;49.470;10.394;2024-03-02T07:11:36;6.30;76.10
6078;DHT22;3067;49.470;10.394;2024-03-02T07:14:04;6.40;75.90
6078;DHT22;3067;49.470;10.394;2024-03-02T07:16:31;6.50;75.70
6078;DHT22;3067;49.470;10.394;2024-03-02T07:19:00;6.50;75.70
6078;DHT22;3067;49.470;10.394;2024-03-02T07:21:27;6.60;75.70
6078;DHT22;3067;49.470;10.394;2024-03-02T07:23:54;6.60;75.90
6078;DHT22;3067;49.470;10.394;2024-03-02T07:26:23;6.60;76.00
6078;DHT22;3067;49.470;10.394;2024-03-02T07:28:51;6.70;75.90
6078;DHT22;3067;49.470;10.394;2024-03-02T07:31:18;6.80;75.70
6078;DHT22;3067;49.470;10.394;2024-03-02T07:33:45;6.80;75.70
6078;DHT22;3067;49.470;10.394;2024-03-02T07:36:13;6.80;75.70
6078;DHT22;3067;49.470;10.394;2024-03-02T07:38:40;6.80;76.20
6078;DHT22;3067;49.470;10.394;2024-03-02T07:41:08;6.80;76.50
6078;DHT22;3067;49.470;10.394;2024-03-02T07:43:38;6.80;76.90
6078;DHT22;3067;49.470;10.394;2024-03-02T07:46:05;6.80;77.00
6078;DHT22;3067;49.470;10.394;2024-03-02T07:48:32;6.90;76.90
6078;DHT22;3067;49.470;10.394;2024-03-02T07:51:00;6.90;77.10
6078;DHT22;3067;49.470;10.394;2024-03-02T07:53:28;6.90;76.40
6078;DHT22;3067;49.470;10.394;2024-03-02T07:55:55;7.00;76.60
6078;DHT22;3067;49.470;10.394;2024-03-02T07:58:27;7.10;76.20
6078;DHT22;3067;49.470;10.394;2024-03-02T08:00:56;7.20;75.60
6078;DHT22;3067;49.470;10.394;2024-03-02T08:03:23;7.30;75.50
6078;DHT22;3067;49.470;10.394;2024-03-02T08:05:50;7.50;75.50
6078;DHT22;3067;49.470;10.394;2024-03-02T08:08:17;7.50;74.70
6078;DHT22;3067;49.470;10.394;2024-03-02T08:10:44;7.50;74.20
6078;DHT22;3067;49.470;10.394;2024-03-02T08:13:11;7.50;74.40
6078;DHT22;3067;49.470;10.394;2024-03-02T08:15:39;7.60;74.50
6078;DHT22;3067;49.470;10.394;2024-03-02T08:18:07;7.70;74.30
6078;DHT22;3067;49.470;10.394;2024-03-02T08:20:35;7.80;74.20
6078;DHT22;3067;49.470;10.394;2024-03-02T08:23:02;7.80;73.90
6078;DHT22;3067;49.470;10.394;2024-03-02T08:25:29;8.00;73.00
6078;DHT22;3067;49.470;10.394;2024-03-02T08:27:56;8.00;72.60
6078;DHT22;3067;49.470;10.394;2024-03-02T08:30:23;8.20;72.80
6078;DHT22;3067;49.470;10.394;2024-03-02T08:32:50;8.30;72.80
6078;DHT22;3067;49.470;10.394;2024-03-02T08:35:19;8.50;73.00
6078;DHT22;3067;49.470;10.394;2024-03-02T08:37:48;8.70;71.70
6078;DHT22;3067;49.470;10.394;2024-03-02T08:40:15;8.80;70.70
6078;DHT22;3067;49.470;10.394;2024-03-02T08:42:42;8.80;67.90
6078;DHT22;3067;49.470;10.394;2024-03-02T08:45:09;8.80;69.50
6078;DHT22;3067;49.470;10.394;2024-03-02T08:47:36;8.90;69.10
6078;DHT22;3067;49.470;10.394;2024-03-02T08:50:04;9.00;69.00
6078;DHT22;3067;49.470;10.394;2024-03-02T08:52:33;8.90;67.20
6078;DHT22;3067;49.470;10.394;2024-03-02T08:55:00;8.90;67.80
6078;DHT22;3067;49.470;10.394;2024-03-02T08:57:27;9.10;68.30
6078;DHT22;3067;49.470;10.394;2024-03-02T08:59:55;9.20;68.80
6078;DHT22;3067;49.470;10.394;2024-03-02T09:02:22;9.40;64.90
6078;DHT22;3067;49.470;10.394;2024-03-02T09:04:49;9.40;66.30
6078;DHT22;3067;49.470;10.394;2024-03-02T09:07:16;9.40;66.10
6078;DHT22;3067;49.470;10.394;2024-03-02T09:09:44;9.40;66.50
6078;DHT22;3067;49.470;10.394;2024-03-02T09:12:11;9.40;67.20
6078;DHT22;3067;49.470;10.394;2024-03-02T09:14:39;9.50;67.70
6078;DHT22;3067;49.470;10.394;2024-03-02T09:17:06;9.70;65.20
6078;DHT22;3067;49.470;10.394;2024-03-02T09:19:34;9.80;63.60
6078;DHT22;3067;49.470;10.394;2024-03-02T09:22:01;10.00;62.20
6078;DHT22;3067;49.470;10.394;2024-03-02T09:24:28;10.10;64.00
6078;DHT22;3067;49.470;10.394;2024-03-02T09:32:00;10.60;62.90
6078;DHT22;3067;49.470;10.394;2024-03-02T09:34:27;10.60;63.10
6078;DHT22;3067;49.470;10.394;2024-03-02T09:36:54;10.50;62.10
6078;DHT22;3067;49.470;10.394;2024-03-02T09:39:21;10.50;62.30
6078;DHT22;3067;49.470;10.394;2024-03-02T09:41:48;10.40;63.00
6078;DHT22;3067;49.470;10.394;2024-03-02T09:44:15;10.60;63.90
6078;DHT22;3067;49.470;10.394;2024-03-02T09:46:43;10.80;62.70
6078;DHT22;3067;49.470;10.394;2024-03-02T09:49:12;10.90;61.80
6078;DHT22;3067;49.470;10.394;2024-03-02T09:51:39;11.10;61.70
6078;DHT22;3067;49.470;10.394;2024-03-02T09:54:07;11.30;61.90
6078;DHT22;3067;49.470;10.394;2024-03-02T09:56:34;11.40;59.70
6078;DHT22;3067;49.470;10.394;2024-03-02T09:59:02;11.40;59.90
6078;DHT22;3067;49.470;10.394;2024-03-02T10:01:29;11.40;59.10
6078;DHT22;3067;49.470;10.394;2024-03-02T10:03:57;11.30;58.20
6078;DHT22;3067;49.470;10.394;2024-03-02T10:06:28;11.30;58.00
6078;DHT22;3067;49.470;10.394;2024-03-02T10:08:56;11.30;59.20
6078;DHT22;3067;49.470;10.394;2024-03-02T10:11:28;11.50;59.60
6078;DHT22;3067;49.470;10.394;2024-03-02T10:14:06;11.60;59.20
6078;DHT22;3067;49.470;10.394;2024-03-02T10:16:37;11.70;56.90
6078;DHT22;3067;49.470;10.394;2024-03-02T10:19:16;11.90;58.00
6078;DHT22;3067;49.470;10.394;2024-03-02T10:21:45;12.00;58.50
6078;DHT22;3067;49.470;10.394;2024-03-02T10:24:12;12.20;58.00
6078;DHT22;3067;49.470;10.394;2024-03-02T10:26:39;12.30;56.70
6078;DHT22;3067;49.470;10.394;2024-03-02T10:29:08;12.50;57.10
6078;DHT22;3067;49.470;10.394;2024-03-02T10:31:37;12.50;57.30
6078;DHT22;3067;49.470;10.394;2024-03-02T10:34:04;12.70;56.40
6078;DHT22;3067;49.470;10.394;2024-03-02T10:36:32;12.80;55.50
6078;DHT22;3067;49.470;10.394;2024-03-02T10:39:02;12.80;54.50
6078;DHT22;3067;49.470;10.394;2024-03-02T10:41:32;13.00;55.40
6078;DHT22;3067;49.470;10.394;2024-03-02T10:44:02;13.10;53.50
6078;DHT22;3067;49.470;10.394;2024-03-02T10:46:31;13.10;52.10
6078;DHT22;3067;49.470;10.394;2024-03-02T10:48:59;13.10;50.10
6078;DHT22;3067;49.470;10.394;2024-03-02T10:51:26;12.90;50.90
6078;DHT22;3067;49.470;10.394;2024-03-02T10:53:54;13.10;51.80
6078;DHT22;3067;49.470;10.394;2024-03-02T10:56:27;13.20;52.30
6078;DHT22;3067;49.470;10.394;2024-03-02T10:59:01;13.40;52.60
6078;DHT22;3067;49.470;10.394;2024-03-02T11:01:31;13.60;51.10
6078;DHT22;3067;49.470;10.394;2024-03-02T11:03:59;13.70;51.40
6078;DHT22;3067;49.470;10.394;2024-03-02T11:06:29;13.80;52.10
6078;DHT22;3067;49.470;10.394;2024-03-02T11:09:00;13.90;51.50
6078;DHT22;3067;49.470;10.394;2024-03-02T11:11:36;14.00;51.20
6078;DHT22;3067;49.470;10.394;2024-03-02T11:14:06;14.10;50.90
6078;DHT22;3067;49.470;10.394;2024-03-02T11:16:36;14.20;52.10
6078;DHT22;3067;49.470;10.394;2024-03-02T11:19:06;14.40;50.80
6078;DHT22;3067;49.470;10.394;2024-03-02T11:21:34;14.50;49.70
6078;DHT22;3067;49.470;10.394;2024-03-02T11:24:28;14.50;49.50
6078;DHT22;3067;49.470;10.394;2024-03-02T11:27:00;14.70;49.50
6078;DHT22;3067;49.470;10.394;2024-03-02T11:29:46;14.80;50.80
6078;DHT22;3067;49.470;10.394;2024-03-02T11:32:20;14.90;49.70
6078;DHT22;3067;49.470;10.394;2024-03-02T11:34:48;14.90;49.80
6078;DHT22;3067;49.470;10.394;2024-03-02T11:37:16;15.00;50.10
6078;DHT22;3067;49.470;10.394;2024-03-02T11:39:44;15.00;50.00
6078;DHT22;3067;49.470;10.394;2024-03-02T11:42:14;15.10;49.40
6078;DHT22;3067;49.470;10.394;2024-03-02T11:44:43;15.30;48.60
6078;DHT22;3067;49.470;10.394;2024-03-02T11:47:12;15.50;48.30
6078;DHT22;3067;49.470;10.394;2024-03-02T11:49:42;15.50;47.20
6078;DHT22;3067;49.470;10.394;2024-03-02T11:52:10;15.30;45.70
6078;DHT22;3067;49.470;10.394;2024-03-02T11:54:38;15.00;45.70
6078;DHT22;3067;49.470;10.394;2024-03-02T11:57:06;15.10;47.50
6078;DHT22;3067;49.470;10.394;2024-03-02T11:59:35;15.10;48.50
6078;DHT22;3067;49.470;10.394;2024-03-02T12:02:02;15.00;49.00
6078;DHT22;3067;49.470;10.394;2024-03-02T12:04:30;15.10;49.70
6078;DHT22;3067;49.470;10.394;2024-03-02T12:06:58;15.40;48.80
6078;DHT22;3067;49.470;10.394;2024-03-02T12:09:26;15.50;49.10
6078;DHT22;3067;49.470;10.394;2024-03-02T12:12:04;15.60;49.20
6078;DHT22;3067;49.470;10.394;2024-03-02T12:14:32;15.80;47.50
6078;DHT22;3067;49.470;10.394;2024-03-02T12:17:01;15.80;46.30
6078;DHT22;3067;49.470;10.394;2024-03-02T12:19:29;16.00;47.20
6078;DHT22;3067;49.470;10.394;2024-03-02T12:21:57;16.00;47.10
6078;DHT22;3067;49.470;10.394;2024-03-02T12:24:26;16.10;47.50
6078;DHT22;3067;49.470;10.394;2024-03-02T12:26:54;16.40;47.30
6078;DHT22;3067;49.470;10.394;2024-03-02T12:29:22;16.50;47.00
6078;DHT22;3067;49.470;10.394;2024-03-02T12:31:50;16.80;46.20
6078;DHT22;3067;49.470;10.394;2024-03-02T12:34:19;16.90;44.80
6078;DHT22;3067;49.470;10.394;2024-03-02T12:36:46;17.00;45.80
6078;DHT22;3067;49.470;10.394;2024-03-02T12:39:16;17.20;45.10
6078;DHT22;3067;49.470;10.394;2024-03-02T12:41:43;17.40;44.60
6078;DHT22;3067;49.470;10.394;2024-03-02T12:44:10;17.60;44.50
6078;DHT22;3067;49.470;10.394;2024-03-02T12:46:37;17.80;43.00
6078;DHT22;3067;49.470;10.394;2024-03-02T12:49:09;17.80;42.10
6078;DHT22;3067;49.470;10.394;2024-03-02T12:51:39;17.80;43.00
6078;DHT22;3067;49.470;10.394;2024-03-02T12:54:07;18.00;41.90
6078;DHT22;3067;49.470;10.394;2024-03-02T12:56:35;18.00;41.10
6078;DHT22;3067;49.470;10.394;2024-03-02T12:59:03;17.80;41.60
6078;DHT22;3067;49.470;10.394;2024-03-02T13:01:30;17.80;41.60
6078;DHT22;3067;49.470;10.394;2024-03-02T13:03:58;18.00;42.50
6078;DHT22;3067;49.470;10.394;2024-03-02T13:06:26;18.40;41.50
6078;DHT22;3067;49.470;10.394;2024-03-02T13:08:56;18.90;41.20
6078;DHT22;3067;49.470;10.394;2024-03-02T13:11:23;19.40;39.60
6078;DHT22;3067;49.470;10.394;2024-03-02T13:13:51;19.70;39.30
6078;DHT22;3067;49.470;10.394;2024-03-02T13:16:18;20.00;38.90
6078;DHT22;3067;49.470;10.394;2024-03-02T13:18:46;20.50;37.70
6078;DHT22;3067;49.470;10.394;2024-03-02T13:21:13;20.90;37.80
6078;DHT22;3067;49.470;10.394;2024-03-02T13:23:40;21.30;36.60
6078;DHT22;3067;49.470;10.394;2024-03-02T13:26:09;21.70;35.70
6078;DHT22;3067;49.470;10.394;2024-03-02T13:28:38;22.20;35.30
6078;DHT22;3067;49.470;10.394;2024-03-02T13:31:05;22.70;34.70
6078;DHT22;3067;49.470;10.394;2024-03-02T13:33:33;23.00;33.60
6078;DHT22;3067;49.470;10.394;2024-03-02T13:36:00;23.30;33.30
6078;DHT22;3067;49.470;10.394;2024-03-02T13:38:28;23.50;32.60
6078;DHT22;3067;49.470;10.394;2024-03-02T13:40:55;23.40;32.90
6078;DHT22;3067;49.470;10.394;2024-03-02T13:43:24;23.50;32.80
6078;DHT22;3067;49.470;10.394;2024-03-02T13:45:51;23.70;31.60
6078;DHT22;3067;49.470;10.394;2024-03-02T13:48:19;23.60;30.90
6078;DHT22;3067;49.470;10.394;2024-03-02T13:50:46;23.20;31.20
6078;DHT22;3067;49.470;10.394;2024-03-02T13:53:13;23.00;31.30
6078;DHT22;3067;49.470;10.394;2024-03-02T13:55:40;22.90;31.20
6078;DHT22;3067;49.470;10.394;2024-03-02T13:58:09;23.00;31.90
6078;DHT22;3067;49.470;10.394;2024-03-02T14:00:38;22.90;32.60
6078;DHT22;3067;49.470;10.394;2024-03-02T14:03:06;23.30;32.70
6078;DHT22;3067;49.470;10.394;2024-03-02T14:05:33;23.60;32.60
6078;DHT22;3067;49.470;10.394;2024-03-02T14:08:00;23.90;32.00
6078;DHT22;3067;49.470;10.394;2024-03-02T14:10:27;24.20;31.20
6078;DHT22;3067;49.470;10.394;2024-03-02T14:12:54;24.40;31.50
6078;DHT22;3067;49.470;10.394;2024-03-02T14:15:22;24.40;32.00
6078;DHT22;3067;49.470;10.394;2024-03-02T14:17:50;24.70;30.90
6078;DHT22;3067;49.470;10.394;2024-03-02T14:20:18;24.80;30.70
6078;DHT22;3067;49.470;10.394;2024-03-02T14:22:48;24.70;31.20
6078;DHT22;3067;49.470;10.394;2024-03-02T14:25:16;24.80;31.40
6078;DHT22;3067;49.470;10.394;2024-03-02T14:27:43;25.00;30.50
6078;DHT22;3067;49.470;10.394;2024-03-02T14:30:12;24.70;31.10
6078;DHT22;3067;49.470;10.394;2024-03-02T14:32:39;24.50;31.40
6078;DHT22;3067;49.470;10.394;2024-03-02T14:35:08;24.40;30.80
6078;DHT22;3067;49.470;10.394;2024-03-02T14:37:37;24.40;30.70
6078;DHT22;3067;49.470;10.394;2024-03-02T14:40:05;24.50;31.10
6078;DHT22;3067;49.470;10.394;2024-03-02T14:42:35;24.60;30.70
6078;DHT22;3067;49.470;10.394;2024-03-02T14:45:02;24.50;30.50
6078;DHT22;3067;49.470;10.394;2024-03-02T14:47:31;24.60;29.80
6078;DHT22;3067;49.470;10.394;2024-03-02T14:49:59;24.50;29.60
6078;DHT22;3067;49.470;10.394;2024-03-02T14:52:27;24.50;29.60
6078;DHT22;3067;49.470;10.394;2024-03-02T14:54:54;24.40;29.80
6078;DHT22;3067;49.470;10.394;2024-03-02T14:57:21;24.20;29.80
6078;DHT22;3067;49.470;10.394;2024-03-02T14:59:48;24.10;30.40
6078;DHT22;3067;49.470;10.394;2024-03-02T15:02:15;24.10;30.30
6078;DHT22;3067;49.470;10.394;2024-03-02T15:04:43;24.00;30.80
6078;DHT22;3067;49.470;10.394;2024-03-02T15:07:11;23.90;29.80
6078;DHT22;3067;49.470;10.394;2024-03-02T15:09:39;23.60;30.20
6078;DHT22;3067;49.470;10.394;2024-03-02T15:12:07;23.20;29.80
6078;DHT22;3067;49.470;10.394;2024-03-02T15:14:38;22.70;30.10
6078;DHT22;3067;49.470;10.394;2024-03-02T15:17:12;22.50;30.40
6078;DHT22;3067;49.470;10.394;2024-03-02T15:19:41;22.30;32.30
6078;DHT22;3067;49.470;10.394;2024-03-02T15:22:08;22.10;33.50
6078;DHT22;3067;49.470;10.394;2024-03-02T15:24:35;21.90;33.60
6078;DHT22;3067;49.470;10.394;2024-03-02T15:27:04;21.60;33.80
6078;DHT22;3067;49.470;10.394;2024-03-02T15:29:33;21.10;34.30
6078;DHT22;3067;49.470;10.394;2024-03-02T15:32:01;20.50;35.00
6078;DHT22;3067;49.470;10.394;2024-03-02T15:34:30;20.00;35.70
6078;DHT22;3067;49.470;10.394;2024-03-02T15:36:58;19.40;36.60
6078;DHT22;3067;49.470;10.394;2024-03-02T15:39:25;18.90;37.30
6078;DHT22;3067;49.470;10.394;2024-03-02T15:41:52;18.50;38.50
6078;DHT22;3067;49.470;10.394;2024-03-02T15:44:20;18.20;39.60
6078;DHT22;3067;49.470;10.394;2024-03-02T15:46:59;18.10;39.60
6078;DHT22;3067;49.470;10.394;2024-03-02T15:49:34;18.00;39.70
6078;DHT22;3067;49.470;10.394;2024-03-02T15:52:03;18.10;39.60
6078;DHT22;3067;49.470;10.394;2024-03-02T15:54:38;18.20;39.80
6078;DHT22;3067;49.470;10.394;2024-03-02T15:57:08;18.30;39.40
6078;DHT22;3067;49.470;10.394;2024-03-02T15:59:37;18.40;39.10
6078;DHT22;3067;49.470;10.394;2024-03-02T16:02:04;18.60;38.60
6078;DHT22;3067;49.470;10.394;2024-03-02T16:04:31;18.80;38.00
6078;DHT22;3067;49.470;10.394;2024-03-02T16:06:59;18.80;37.40